KLEX/LEX METAR and TAF weather

Enter ICAO airport designator
Station Type Date Time Source
KLEX METAR 2019/12/09 13:54 UTC NOAA

KLEX 091354Z 17014G23KT 10SM SCT028 BKN060 OVC090 12/09 A2979 RMK AO2 RAE53 SLP086 P0001 T01170089


Station Type Date Time Source
KLEX Decoded METAR 2019/12/09 13:54 UTC NOAA

LEXINGTON BLUE GRASS AIRPORT, KY, United States (KLEX) 38-02N 084-36W 300M
Dec 09, 2019 - 08:54 AM EST / 2019.12.09 1354 UTC
Wind: from the S (170 degrees) at 16 MPH (14 KT) gusting to 26 MPH (23 KT):0
Visibility: 10 mile(s):0
Sky conditions: overcast
Precipitation last hour: 0.01 inches
Temperature: 53.1 F (11.7 C)
Dew Point: 48.0 F (8.9 C)
Relative Humidity: 82%
Pressure (altimeter): 29.79 in. Hg (1008 hPa)
ob: KLEX 091354Z 17014G23KT 10SM SCT028 BKN060 OVC090 12/09 A2979 RMK AO2 RAE53 SLP086 P0001 T01170089
cycle: 14

Station Type Date Time Source
KLEX TAF 2019/12/09 12:34 UTC NOAA

TAF KLEX 091131Z 0912/1012 18014KT P6SM VCSH BKN026 OVC035
FM091400 18016G26KT P6SM BKN017 OVC029
FM091700 20017G26KT P6SM -SHRA BKN017 OVC023
FM100000 21015KT P6SM -SHRA OVC018
FM100700 28015G22KT P6SM OVC013

Example: see airport list